Time;durP1;ratioP1;P1;durP2;ratioP2;P2;SDS_P1;SDS_P2;PMS_P1;PMS_P2;Temp;Humidity;BMP_temperature;BMP_pressure;BME280_temperature;BME280_humidity;BME280_pressure;Samples;Min_cycle;Max_cycle;Signal;HPM_P1;HPM_P2
2021/01/10 00:00:27;;;;;;;35.65;16.20;;;1.90;97.80;;;;;;5011274;28;20050;-88
2021/01/10 00:02:53;;;;;;;35.17;14.32;;;1.90;97.60;;;;;;5003124;28;20183;-90
2021/01/10 00:05:26;;;;;;;38.30;15.68;;;1.90;97.60;;;;;;5014445;28;20029;-89
2021/01/10 00:07:52;;;;;;;43.90;19.70;;;1.90;97.50;;;;;;5032069;28;20053;-87
2021/01/10 00:10:18;;;;;;;46.13;17.38;;;1.80;97.50;;;;;;5012264;28;20433;-89
2021/01/10 00:12:43;;;;;;;47.75;16.08;;;1.90;97.70;;;;;;5007745;28;20033;-87
2021/01/10 00:15:10;;;;;;;60.00;21.20;;;1.90;97.60;;;;;;5039577;28;20049;-89
2021/01/10 00:17:37;;;;;;;38.65;14.85;;;1.80;97.50;;;;;;5010443;28;20044;-88
2021/01/10 00:20:09;;;;;;;54.33;20.13;;;1.90;97.70;;;;;;5024677;28;20029;-90
2021/01/10 00:22:34;;;;;;;46.67;20.60;;;1.80;97.60;;;;;;5016428;28;20037;-90
2021/01/10 00:25:00;;;;;;;52.53;18.92;;;1.90;97.60;;;;;;5024884;28;20042;-89
2021/01/10 00:27:26;;;;;;;30.77;13.30;;;1.80;97.60;;;;;;5012090;28;20451;-89
2021/01/10 00:29:52;;;;;;;47.28;19.73;;;1.90;97.60;;;;;;5000408;28;20029;-90
2021/01/10 00:32:17;;;;;;;48.42;20.60;;;1.90;97.50;;;;;;5016218;28;20029;-89
2021/01/10 00:34:43;;;;;;;39.50;15.48;;;2.00;97.60;;;;;;5020558;28;20030;-89
2021/01/10 00:37:13;;;;;;;53.15;20.55;;;2.00;97.50;;;;;;5017670;28;20499;-87
2021/01/10 00:39:39;;;;;;;40.08;16.88;;;1.90;97.50;;;;;;5016903;28;20122;-87
2021/01/10 00:42:09;;;;;;;45.38;17.02;;;1.90;97.40;;;;;;5013357;28;20126;-89
2021/01/10 00:44:35;;;;;;;48.08;20.05;;;2.00;97.50;;;;;;5012727;28;20037;-86
2021/01/10 00:47:01;;;;;;;50.65;20.55;;;2.00;97.40;;;;;;5011093;28;20029;-88
2021/01/10 00:49:28;;;;;;;46.17;17.65;;;1.90;97.40;;;;;;5010400;28;20568;-88
2021/01/10 00:51:53;;;;;;;49.38;19.30;;;1.90;97.50;;;;;;5028983;28;20389;-89
2021/01/10 00:54:20;;;;;;;48.60;20.17;;;1.90;97.60;;;;;;5012973;28;20131;-87
2021/01/10 00:56:46;;;;;;;57.00;20.23;;;1.80;97.50;;;;;;5002453;28;20037;-90
2021/01/10 00:59:12;;;;;;;50.00;19.15;;;1.70;97.70;;;;;;5024826;28;20123;-89
2021/01/10 01:01:37;;;;;;;42.05;17.48;;;1.80;97.70;;;;;;4998409;28;20485;-88
2021/01/10 01:04:03;;;;;;;58.53;22.15;;;1.80;97.50;;;;;;4953862;28;20481;-89
2021/01/10 01:06:28;;;;;;;50.13;19.80;;;1.80;97.70;;;;;;5009393;28;20033;-90
2021/01/10 01:08:55;;;;;;;56.83;19.77;;;1.70;97.60;;;;;;5021558;28;20087;-86
2021/01/10 01:11:31;;;;;;;56.67;20.27;;;1.70;97.70;;;;;;5015163;28;20022;-89
2021/01/10 01:13:56;;;;;;;60.72;20.80;;;1.70;97.80;;;;;;4992327;28;20044;-89
2021/01/10 01:16:22;;;;;;;53.55;19.13;;;1.70;97.80;;;;;;5006405;28;20036;-86
2021/01/10 01:18:47;;;;;;;49.90;19.23;;;1.60;97.80;;;;;;5010192;28;20032;-87
2021/01/10 01:21:16;;;;;;;48.75;17.05;;;1.80;97.80;;;;;;5009571;28;20037;-89
2021/01/10 01:23:42;;;;;;;54.70;19.52;;;1.90;97.50;;;;;;5010167;28;20395;-89
2021/01/10 01:26:16;;;;;;;51.78;19.90;;;1.90;97.50;;;;;;5008838;28;20034;-87
2021/01/10 01:28:43;;;;;;;49.38;18.02;;;1.80;97.50;;;;;;5005247;28;20033;-87
2021/01/10 01:31:10;;;;;;;36.25;15.27;;;1.80;97.60;;;;;;5024321;28;20079;-86
2021/01/10 01:33:36;;;;;;;56.10;21.02;;;1.80;97.50;;;;;;5007025;28;20033;-88
2021/01/10 01:36:01;;;;;;;50.85;19.38;;;1.80;97.40;;;;;;4997481;28;20161;-89
2021/01/10 01:38:27;;;;;;;45.13;18.05;;;1.80;97.60;;;;;;5002426;28;20033;-89
2021/01/10 01:41:01;;;;;;;37.70;15.90;;;1.70;97.60;;;;;;4997162;28;20509;-88
2021/01/10 01:43:27;;;;;;;49.30;19.00;;;1.70;97.60;;;;;;5017350;28;20048;-88
2021/01/10 01:45:53;;;;;;;43.47;17.08;;;1.70;97.40;;;;;;5018473;28;20033;-86
2021/01/10 01:48:18;;;;;;;41.05;16.23;;;1.60;97.60;;;;;;5014306;28;20496;-87
2021/01/10 01:50:45;;;;;;;52.10;21.20;;;1.60;97.70;;;;;;5021244;28;20643;-89
2021/01/10 01:53:11;;;;;;;49.38;19.33;;;1.70;97.60;;;;;;5018940;28;20044;-88
2021/01/10 01:55:36;;;;;;;47.35;18.60;;;1.80;97.60;;;;;;5008213;28;20045;-89
2021/01/10 01:58:05;;;;;;;43.50;19.35;;;1.80;97.60;;;;;;5001373;28;20571;-88
2021/01/10 02:00:31;;;;;;;40.83;16.50;;;1.90;97.40;;;;;;4993107;28;20033;-88
2021/01/10 02:02:57;;;;;;;48.75;19.65;;;1.80;97.20;;;;;;5020761;28;20037;-87
2021/01/10 02:05:23;;;;;;;47.15;19.70;;;1.70;97.30;;;;;;5016422;28;20033;-83
2021/01/10 02:07:59;;;;;;;49.22;18.20;;;1.60;97.50;;;;;;4994146;28;20319;-87
2021/01/10 02:10:28;;;;;;;50.20;19.33;;;1.60;97.70;;;;;;4995548;28;20388;-88
2021/01/10 02:12:58;;;;;;;41.42;18.23;;;1.70;97.60;;;;;;5004622;28;20029;-88
2021/01/10 02:15:28;;;;;;;46.53;18.42;;;1.70;97.50;;;;;;5027563;28;20492;-89
2021/01/10 02:17:53;;;;;;;46.47;16.85;;;1.70;97.50;;;;;;5019403;28;20025;-85
2021/01/10 02:20:28;;;;;;;44.65;17.58;;;1.70;97.60;;;;;;5011761;28;20495;-88
2021/01/10 02:22:55;;;;;;;48.23;19.40;;;1.60;97.60;;;;;;4996499;28;20029;-89
2021/01/10 02:25:24;;;;;;;48.97;20.88;;;1.70;97.60;;;;;;5011676;28;20029;-90
2021/01/10 02:27:49;;;;;;;47.63;18.27;;;1.70;97.60;;;;;;5013845;28;20540;-88
2021/01/10 02:30:18;;;;;;;40.30;16.50;;;1.50;97.30;;;;;;5009894;28;20109;-89
2021/01/10 02:32:45;;;;;;;37.33;16.55;;;1.40;97.60;;;;;;5043040;28;20050;-90
2021/01/10 02:35:11;;;;;;;47.67;20.35;;;1.50;97.70;;;;;;4998260;28;20034;-91
2021/01/10 02:38:03;;;;;;;52.13;20.42;;;1.50;97.50;;;;;;5008390;28;20048;-90
2021/01/10 02:40:35;;;;;;;36.83;15.02;;;1.30;97.40;;;;;;5011369;28;20027;-89
2021/01/10 02:43:20;;;;;;;39.92;17.60;;;1.30;97.90;;;;;;5011847;28;20024;-90
2021/01/10 02:45:47;;;;;;;44.42;17.73;;;1.50;98.00;;;;;;5014269;28;20477;-88
2021/01/10 02:48:12;;;;;;;35.10;16.02;;;1.60;97.80;;;;;;5007925;28;20037;-89
2021/01/10 02:50:38;;;;;;;44.80;19.33;;;1.50;97.70;;;;;;5007418;28;20029;-85
2021/01/10 02:53:04;;;;;;;44.15;18.13;;;1.60;97.70;;;;;;5028079;28;20025;-88
2021/01/10 02:55:29;;;;;;;39.60;16.20;;;1.60;97.70;;;;;;5020656;28;20257;-90
2021/01/10 02:57:57;;;;;;;45.40;19.02;;;1.50;97.60;;;;;;5021591;28;20029;-91
2021/01/10 03:00:23;;;;;;;43.35;18.40;;;1.50;97.60;;;;;;5012648;28;20036;-89
2021/01/10 03:02:50;;;;;;;50.28;22.02;;;1.40;97.70;;;;;;4991273;28;20029;-87
2021/01/10 03:05:16;;;;;;;38.30;16.67;;;1.60;97.90;;;;;;5012721;28;20128;-90
2021/01/10 03:07:41;;;;;;;54.25;21.52;;;1.50;97.60;;;;;;4997233;28;20034;-87
2021/01/10 03:10:09;;;;;;;40.40;17.33;;;1.40;97.60;;;;;;5020578;28;20036;-89
2021/01/10 03:12:35;;;;;;;51.85;20.15;;;1.40;97.80;;;;;;5006888;28;20025;-86
2021/01/10 03:15:00;;;;;;;55.25;22.83;;;1.40;97.70;;;;;;5017867;28;20037;-88
2021/01/10 03:17:35;;;;;;;49.15;22.55;;;1.50;97.70;;;;;;5007821;28;20533;-89
2021/01/10 03:20:02;;;;;;;46.08;19.17;;;1.40;97.70;;;;;;5023889;28;20500;-89
2021/01/10 03:22:28;;;;;;;64.25;24.02;;;1.50;97.90;;;;;;5007156;28;20465;-90
2021/01/10 03:24:54;;;;;;;43.13;18.02;;;1.40;97.70;;;;;;5024457;28;20022;-88
2021/01/10 03:27:19;;;;;;;49.45;18.35;;;1.50;97.80;;;;;;5012342;28;20085;-88
2021/01/10 03:29:45;;;;;;;58.40;22.88;;;1.50;97.70;;;;;;5013161;28;20105;-86
2021/01/10 03:32:10;;;;;;;43.78;17.55;;;1.40;97.50;;;;;;5015198;28;20033;-89
2021/01/10 03:34:36;;;;;;;63.10;22.17;;;1.50;97.80;;;;;;5000263;28;20079;-89
2021/01/10 03:37:02;;;;;;;47.30;18.80;;;1.50;97.60;;;;;;5012279;28;20033;-87
2021/01/10 03:39:27;;;;;;;55.95;21.38;;;1.40;97.50;;;;;;5015900;28;20111;-87
2021/01/10 03:41:53;;;;;;;43.92;19.95;;;1.40;97.70;;;;;;5022428;28;20037;-87
2021/01/10 03:44:19;;;;;;;53.20;20.75;;;1.40;97.80;;;;;;5012715;28;20488;-87
2021/01/10 03:46:45;;;;;;;53.47;22.20;;;1.40;97.90;;;;;;5027293;28;20030;-88
2021/01/10 03:49:11;;;;;;;55.08;20.70;;;1.40;97.70;;;;;;5019181;28;20040;-81
2021/01/10 03:51:36;;;;;;;56.70;21.25;;;1.20;97.60;;;;;;5007299;28;20029;-82
2021/01/10 03:54:02;;;;;;;38.35;15.45;;;1.10;97.70;;;;;;4993299;28;20021;-82
2021/01/10 03:56:28;;;;;;;42.47;16.55;;;1.00;97.70;;;;;;5009427;28;20507;-82
2021/01/10 03:58:53;;;;;;;59.17;22.17;;;1.10;98.00;;;;;;4996031;28;20107;-84
2021/01/10 04:01:19;;;;;;;50.70;18.63;;;1.00;97.50;;;;;;5006449;28;20079;-82
2021/01/10 04:03:44;;;;;;;47.22;18.77;;;0.90;97.60;;;;;;4994123;28;20034;-82
2021/01/10 04:06:10;;;;;;;53.60;21.55;;;0.80;97.70;;;;;;5028003;28;20029;-81
2021/01/10 04:08:35;;;;;;;54.15;19.88;;;0.80;97.80;;;;;;5007207;28;20033;-83
2021/01/10 04:11:01;;;;;;;33.13;13.98;;;0.70;97.60;;;;;;4989968;28;20053;-83
2021/01/10 04:13:26;;;;;;;56.53;21.40;;;0.70;97.80;;;;;;5013091;28;20033;-81
2021/01/10 04:15:52;;;;;;;56.28;20.50;;;0.60;97.50;;;;;;4994582;28;20030;-81
2021/01/10 04:18:17;;;;;;;53.83;20.60;;;0.60;97.70;;;;;;5004696;28;20481;-82
2021/01/10 04:20:43;;;;;;;47.95;18.65;;;0.70;97.90;;;;;;5004554;28;20079;-81
2021/01/10 04:23:08;;;;;;;66.65;23.00;;;0.80;98.10;;;;;;4989404;28;20071;-83
2021/01/10 04:25:34;;;;;;;47.65;18.83;;;0.70;97.60;;;;;;5004774;28;20037;-83
2021/01/10 04:28:00;;;;;;;48.10;19.40;;;0.60;97.80;;;;;;5021281;28;20478;-84
2021/01/10 04:30:25;;;;;;;43.35;16.40;;;0.80;97.90;;;;;;4996819;28;20532;-84
2021/01/10 04:32:51;;;;;;;45.88;18.77;;;0.80;98.00;;;;;;4993718;28;20473;-82
2021/01/10 04:35:17;;;;;;;56.70;20.25;;;1.00;97.90;;;;;;4995869;28;20037;-83
2021/01/10 04:37:42;;;;;;;55.63;21.70;;;0.90;97.50;;;;;;4990721;28;20051;-83
2021/01/10 04:40:08;;;;;;;59.58;20.92;;;0.60;97.40;;;;;;5005260;28;20026;-83
2021/01/10 04:42:34;;;;;;;46.47;18.52;;;0.50;97.40;;;;;;5017554;28;20031;-82
2021/01/10 04:44:59;;;;;;;47.47;18.23;;;0.60;97.90;;;;;;5024704;28;20477;-82
2021/01/10 04:47:25;;;;;;;41.72;16.40;;;0.60;98.00;;;;;;5009145;28;20033;-82
2021/01/10 04:49:50;;;;;;;46.38;17.13;;;0.70;97.90;;;;;;4989130;28;20033;-82
2021/01/10 04:52:18;;;;;;;43.00;15.35;;;0.70;97.90;;;;;;5010911;28;20032;-83
2021/01/10 04:54:44;;;;;;;41.90;16.40;;;0.80;98.30;;;;;;5038147;28;20053;-83
2021/01/10 04:57:11;;;;;;;39.67;16.27;;;0.90;98.00;;;;;;4998554;28;20040;-83
2021/01/10 04:59:41;;;;;;;42.17;16.40;;;0.90;98.00;;;;;;5017589;28;20067;-85
2021/01/10 05:02:07;;;;;;;41.45;16.08;;;1.10;98.00;;;;;;4660643;28;10000179;-82
2021/01/10 05:04:33;;;;;;;54.83;21.10;;;1.10;97.70;;;;;;5010434;28;20044;-83
2021/01/10 05:06:59;;;;;;;48.25;19.25;;;0.90;97.30;;;;;;4992621;28;20520;-83
2021/01/10 05:09:25;;;;;;;33.67;11.50;;;0.90;97.60;;;;;;4314069;28;10021637;-82
2021/01/10 05:11:50;;;;;;;38.85;16.42;;;0.80;97.80;;;;;;4989473;28;20426;-81
2021/01/10 05:14:16;;;;;;;118.03;23.92;;;0.80;97.90;;;;;;5003026;28;20045;-84
2021/01/10 05:17:20;;;;;;;53.78;17.08;;;0.90;98.00;;;;;;5035603;27;20429;-82
2021/01/10 05:19:46;;;;;;;87.32;19.63;;;0.80;97.70;;;;;;5031532;27;20058;-82
2021/01/10 05:22:11;;;;;;;60.25;19.08;;;0.80;97.80;;;;;;5017929;27;20441;-82
2021/01/10 05:24:37;;;;;;;44.90;17.67;;;0.80;97.70;;;;;;5004903;27;20032;-81
2021/01/10 05:27:03;;;;;;;70.82;19.25;;;0.90;98.00;;;;;;5000582;27;20022;-81
2021/01/10 05:29:29;;;;;;;46.08;18.13;;;0.90;97.80;;;;;;5005049;27;20116;-82
2021/01/10 05:31:55;;;;;;;104.50;23.15;;;0.90;97.80;;;;;;5003315;28;20030;-81
2021/01/10 05:34:22;;;;;;;49.72;19.40;;;0.90;97.90;;;;;;5018128;27;20078;-83
2021/01/10 05:36:47;;;;;;;39.75;15.13;;;0.90;97.90;;;;;;5005127;27;20045;-83
2021/01/10 05:39:22;;;;;;;95.57;20.83;;;0.90;97.90;;;;;;5000538;28;20052;-83
2021/01/10 05:41:59;;;;;;;37.92;17.83;;;1.00;97.60;;;;;;5034766;27;20086;-83
2021/01/10 05:44:28;;;;;;;41.00;17.33;;;0.90;97.70;;;;;;5014277;27;20030;-83
2021/01/10 05:47:23;;;;;;;41.55;17.90;;;0.90;97.90;;;;;;4655049;28;10000218;-83
2021/01/10 05:49:53;;;;;;;65.90;20.35;;;1.00;97.80;;;;;;5018346;27;20040;-84
2021/01/10 05:52:19;;;;;;;35.38;15.50;;;0.80;97.50;;;;;;5034990;27;24675;-85
2021/01/10 05:54:46;;;;;;;41.42;16.20;;;0.80;97.90;;;;;;5001261;27;20056;-84
2021/01/10 05:57:12;;;;;;;145.13;27.25;;;0.90;97.90;;;;;;5020918;27;20030;-82
2021/01/10 05:59:46;;;;;;;55.67;19.77;;;0.80;97.80;;;;;;5021160;27;20025;-83
2021/01/10 06:02:12;;;;;;;57.50;20.45;;;0.80;97.90;;;;;;5003883;27;20070;-82
2021/01/10 06:04:37;;;;;;;41.45;16.70;;;0.90;97.90;;;;;;5008234;27;20033;-82
2021/01/10 06:07:03;;;;;;;47.05;17.63;;;1.00;97.90;;;;;;5003027;27;20399;-84
2021/01/10 06:09:29;;;;;;;39.90;17.70;;;0.90;97.70;;;;;;4998619;27;20032;-83
2021/01/10 06:11:57;;;;;;;41.38;16.17;;;1.10;97.70;;;;;;5004786;28;20057;-86
2021/01/10 06:14:24;;;;;;;43.15;16.45;;;1.00;97.60;;;;;;5000567;28;20423;-87
2021/01/10 06:16:54;;;;;;;35.78;15.38;;;1.00;97.60;;;;;;5005429;27;20049;-88
2021/01/10 06:19:24;;;;;;;39.30;16.75;;;1.10;97.50;;;;;;5019943;27;20034;-86
2021/01/10 06:21:50;;;;;;;48.83;19.23;;;1.00;97.40;;;;;;5005963;27;20611;-88
2021/01/10 06:24:17;;;;;;;44.75;18.05;;;1.00;97.60;;;;;;5000790;27;20037;-87
2021/01/10 06:26:46;;;;;;;45.08;19.38;;;0.90;97.60;;;;;;5003591;28;20085;-87
2021/01/10 06:29:13;;;;;;;47.03;19.85;;;0.90;97.80;;;;;;4988799;28;20034;-88
2021/01/10 06:31:38;;;;;;;73.28;21.17;;;1.00;97.60;;;;;;4994439;28;20173;-89
2021/01/10 06:34:05;;;;;;;54.33;19.80;;;1.00;97.70;;;;;;5021146;28;20506;-83
2021/01/10 06:36:34;;;;;;;62.13;22.10;;;0.90;97.80;;;;;;4991513;28;20066;-83
2021/01/10 06:39:13;;;;;;;48.83;19.25;;;0.90;97.90;;;;;;4989977;28;20041;-84
2021/01/10 06:41:56;;;;;;;59.55;23.05;;;0.90;97.90;;;;;;5005878;28;20033;-83
2021/01/10 06:44:22;;;;;;;54.13;21.50;;;0.90;97.80;;;;;;5023136;27;20463;-81
2021/01/10 06:46:51;;;;;;;57.85;21.88;;;0.90;97.90;;;;;;4991073;28;20049;-81
2021/01/10 06:49:16;;;;;;;50.20;19.33;;;0.90;97.80;;;;;;5007558;28;20460;-83
2021/01/10 06:51:44;;;;;;;50.35;20.13;;;1.00;97.80;;;;;;4990619;28;20108;-82
2021/01/10 06:54:09;;;;;;;54.08;21.00;;;1.00;97.70;;;;;;4991237;28;20381;-84
2021/01/10 06:56:35;;;;;;;48.45;19.67;;;1.00;97.90;;;;;;5030019;28;20268;-82
2021/01/10 06:59:05;;;;;;;47.85;18.33;;;0.90;97.80;;;;;;5007863;28;20434;-89
2021/01/10 07:01:48;;;;;;;49.83;19.00;;;0.90;97.90;;;;;;5017901;28;20030;-89
2021/01/10 07:04:14;;;;;;;45.67;18.13;;;0.90;97.90;;;;;;5023679;28;20056;-90
2021/01/10 07:06:47;;;;;;;43.30;17.13;;;0.90;98.00;;;;;;5013844;28;20040;-89
2021/01/10 07:09:13;;;;;;;60.65;22.00;;;0.80;97.80;;;;;;4993298;28;20310;-87
2021/01/10 07:11:38;;;;;;;49.10;19.27;;;0.80;97.80;;;;;;4993408;28;20404;-87
2021/01/10 07:14:04;;;;;;;58.97;19.80;;;0.90;98.00;;;;;;5008753;28;20095;-87
2021/01/10 07:16:29;;;;;;;42.25;17.67;;;1.00;97.90;;;;;;5023283;28;20041;-83
2021/01/10 07:18:57;;;;;;;69.80;25.92;;;1.00;97.80;;;;;;5023384;28;20037;-81
2021/01/10 07:21:42;;;;;;;65.85;25.58;;;1.00;97.70;;;;;;4987082;28;20041;-82
2021/01/10 07:24:17;;;;;;;53.08;23.02;;;0.80;97.80;;;;;;5004166;28;20040;-83
2021/01/10 07:26:45;;;;;;;44.22;16.77;;;0.70;97.90;;;;;;5023240;28;20090;-85
2021/01/10 07:29:32;;;;;;;46.75;18.13;;;0.80;98.10;;;;;;5004736;28;20528;-83
2021/01/10 07:32:06;;;;;;;43.65;17.77;;;0.90;97.90;;;;;;4995537;28;20514;-84
2021/01/10 07:34:38;;;;;;;62.33;21.75;;;1.00;97.80;;;;;;4990073;28;20351;-83
2021/01/10 07:37:08;;;;;;;53.78;21.40;;;1.00;97.60;;;;;;5009084;28;20037;-82
2021/01/10 07:39:37;;;;;;;52.05;19.17;;;0.90;97.80;;;;;;4996362;28;20045;-81
2021/01/10 07:42:08;;;;;;;48.88;18.25;;;1.00;97.80;;;;;;5001257;28;20033;-81
2021/01/10 07:44:46;;;;;;;45.25;17.38;;;1.00;97.80;;;;;;5021892;27;20393;-83
2021/01/10 07:47:17;;;;;;;41.35;16.50;;;1.00;97.80;;;;;;4998904;27;20426;-82
2021/01/10 07:49:56;;;;;;;48.25;18.60;;;1.00;97.70;;;;;;5004359;28;20484;-82
2021/01/10 07:52:50;;;;;;;56.20;18.95;;;1.20;97.70;;;;;;4995004;28;20112;-82
2021/01/10 07:55:18;;;;;;;55.47;20.83;;;1.10;97.50;;;;;;4984265;28;20116;-83
2021/01/10 07:57:51;;;;;;;43.78;18.05;;;1.00;97.90;;;;;;5028786;27;20033;-82
2021/01/10 08:00:22;;;;;;;58.20;20.77;;;1.00;97.80;;;;;;4989756;28;20083;-82
2021/01/10 08:03:03;;;;;;;51.33;19.85;;;1.00;97.50;;;;;;4981084;28;20032;-83
2021/01/10 08:05:56;;;;;;;60.08;22.63;;;0.90;97.80;;;;;;5043479;28;20489;-82
2021/01/10 08:08:22;;;;;;;46.00;16.65;;;1.00;97.90;;;;;;5005905;28;20045;-81
2021/01/10 08:10:54;;;;;;;44.85;17.63;;;1.00;97.80;;;;;;4977887;28;20026;-83
2021/01/10 08:13:41;;;;;;;52.28;18.98;;;1.10;98.00;;;;;;5060265;28;20037;-82
2021/01/10 08:16:39;;;;;;;47.00;20.80;;;1.20;97.60;;;;;;5009646;27;20045;-82
2021/01/10 08:19:16;;;;;;;;;;;;;;;;;;;;;
2021/01/10 08:21:42;;;;;;;53.90;21.90;;;1.10;97.80;;;;;;5022105;28;20407;-83
2021/01/10 08:24:18;;;;;;;;;;;;;;;;;;;;;
2021/01/10 08:26:44;;;;;;;46.80;17.60;;;1.10;97.70;;;;;;4989313;28;20033;-83
2021/01/10 08:29:10;;;;;;;44.15;18.15;;;1.20;97.70;;;;;;4982291;28;20044;-83
2021/01/10 08:31:37;;;;;;;39.45;17.02;;;1.20;97.90;;;;;;4966524;28;20060;-82
2021/01/10 08:34:06;;;;;;;44.95;17.15;;;1.30;97.70;;;;;;4989225;28;20029;-83
2021/01/10 08:36:32;;;;;;;44.17;17.80;;;1.30;97.70;;;;;;4988329;28;20121;-82
2021/01/10 08:39:22;;;;;;;55.03;22.17;;;1.20;97.70;;;;;;4987573;28;20037;-82
2021/01/10 08:41:49;;;;;;;44.45;18.77;;;1.30;97.60;;;;;;4966355;28;20046;-82
2021/01/10 08:44:18;;;;;;;48.95;17.58;;;1.20;97.80;;;;;;4958637;28;20036;-82
2021/01/10 08:46:48;;;;;;;49.58;18.48;;;1.30;97.70;;;;;;4953781;28;20575;-82
2021/01/10 08:49:29;;;;;;;47.35;18.90;;;1.40;97.40;;;;;;4981950;27;20030;-82
2021/01/10 08:51:55;;;;;;;47.55;19.92;;;1.40;97.30;;;;;;4985641;28;20083;-83
2021/01/10 08:54:24;;;;;;;50.05;19.60;;;1.30;97.60;;;;;;4981288;27;20029;-84
2021/01/10 08:57:03;;;;;;;46.20;19.65;;;1.30;98.00;;;;;;5000981;27;20169;-83
2021/01/10 08:59:36;;;;;;;51.47;20.92;;;1.30;97.90;;;;;;4996877;28;20029;-83
2021/01/10 09:02:08;;;;;;;53.35;19.15;;;1.40;97.90;;;;;;4992791;28;20461;-82
2021/01/10 09:05:03;;;;;;;46.85;18.85;;;1.40;97.80;;;;;;5004698;28;20041;-81
2021/01/10 09:07:38;;;;;;;46.95;17.48;;;1.50;97.80;;;;;;5010468;27;20033;-82
2021/01/10 09:10:04;;;;;;;42.25;17.10;;;1.40;97.90;;;;;;4981264;28;20056;-83
2021/01/10 09:12:43;;;;;;;46.85;21.15;;;1.50;98.10;;;;;;4989171;28;20099;-82
2021/01/10 09:15:12;;;;;;;51.75;20.83;;;1.50;97.90;;;;;;5003744;28;20037;-83
2021/01/10 09:17:41;;;;;;;55.55;23.27;;;1.60;97.70;;;;;;4991858;28;20033;-83
2021/01/10 09:20:12;;;;;;;46.35;19.52;;;1.70;97.60;;;;;;5010582;28;20044;-84
2021/01/10 09:22:37;;;;;;;45.08;18.48;;;1.60;97.90;;;;;;4985968;28;20022;-83
2021/01/10 09:25:17;;;;;;;40.92;17.75;;;1.60;97.60;;;;;;4984143;28;20381;-82
2021/01/10 09:28:17;;;;;;;53.92;21.88;;;1.80;97.50;;;;;;5027351;28;20529;-82
2021/01/10 09:30:53;;;;;;;64.68;24.20;;;1.80;97.80;;;;;;5002795;27;20109;-83
2021/01/10 09:33:25;;;;;;;52.83;21.55;;;1.90;98.10;;;;;;4996840;28;20036;-83
2021/01/10 09:35:51;;;;;;;54.45;20.23;;;1.80;98.40;;;;;;4983992;28;20125;-83
2021/01/10 09:38:21;;;;;;;58.45;24.17;;;1.90;98.50;;;;;;4995795;28;20162;-84
2021/01/10 09:41:10;;;;;;;49.33;19.83;;;1.90;98.20;;;;;;4986424;27;20026;-84
2021/01/10 09:43:47;;;;;;;54.45;20.90;;;2.00;98.10;;;;;;4983108;28;20055;-84
2021/01/10 09:46:22;;;;;;;39.72;16.75;;;2.10;97.60;;;;;;4990592;28;20041;-83
2021/01/10 09:49:18;;;;;;;59.80;24.10;;;2.10;97.50;;;;;;5004612;28;20034;-83
2021/01/10 09:51:50;;;;;;;50.72;21.83;;;2.10;97.80;;;;;;4961663;28;20034;-83
2021/01/10 09:54:17;;;;;;;37.15;17.92;;;2.10;97.70;;;;;;5016649;28;21332;-82
2021/01/10 09:56:47;;;;;;;49.83;19.40;;;2.30;98.20;;;;;;4966897;28;20177;-81
2021/01/10 09:59:41;;;;;;;44.65;17.25;;;2.30;97.20;;;;;;4997707;28;20029;-82
2021/01/10 10:02:36;;;;;;;46.35;19.92;;;2.40;97.30;;;;;;5007905;28;20021;-83
2021/01/10 10:05:28;;;;;;;50.88;21.10;;;2.40;97.40;;;;;;5006808;28;20033;-82
2021/01/10 10:08:13;;;;;;;43.70;19.40;;;2.40;97.20;;;;;;4993547;28;20037;-82
2021/01/10 10:10:38;;;;;;;43.15;17.92;;;2.40;97.00;;;;;;5001593;28;20042;-81
2021/01/10 10:13:05;;;;;;;52.22;20.70;;;2.50;97.30;;;;;;4981674;28;20030;-81
2021/01/10 10:15:42;;;;;;;37.17;17.48;;;2.50;97.50;;;;;;4984452;27;20080;-81
2021/01/10 10:18:08;;;;;;;37.13;16.90;;;2.50;97.90;;;;;;5005227;28;20508;-83
2021/01/10 10:20:41;;;;;;;47.35;17.52;;;2.60;98.10;;;;;;5012404;28;20116;-83
2021/01/10 10:23:31;;;;;;;40.70;18.05;;;2.60;97.70;;;;;;4984565;28;20120;-81
2021/01/10 10:25:59;;;;;;;35.13;14.73;;;2.60;97.00;;;;;;5021079;28;20041;-82
2021/01/10 10:28:24;;;;;;;35.60;15.05;;;2.60;97.10;;;;;;4987298;28;20531;-83
2021/01/10 10:30:55;;;;;;;37.60;16.67;;;2.60;97.10;;;;;;4986159;27;20037;-84
2021/01/10 10:33:21;;;;;;;39.67;16.77;;;2.60;97.20;;;;;;5003803;28;20170;-82
2021/01/10 10:35:51;;;;;;;33.15;15.90;;;2.60;97.20;;;;;;5003303;28;20112;-84
2021/01/10 10:38:16;;;;;;;36.67;17.20;;;2.60;97.10;;;;;;4982636;28;20052;-83
2021/01/10 10:40:42;;;;;;;40.75;17.90;;;2.60;97.30;;;;;;4986405;28;20030;-84
2021/01/10 10:43:45;;;;;;;37.17;16.08;;;2.70;97.00;;;;;;5005831;28;20104;-82
2021/01/10 10:46:10;;;;;;;43.20;17.70;;;2.70;97.40;;;;;;5027901;27;20477;-83
2021/01/10 10:48:36;;;;;;;39.95;15.95;;;2.70;97.10;;;;;;5005717;28;20037;-82
2021/01/10 10:51:04;;;;;;;34.88;17.20;;;2.80;97.50;;;;;;5003791;28;20482;-81
2021/01/10 10:53:31;;;;;;;40.42;18.65;;;2.70;97.10;;;;;;4990495;28;20041;-81
2021/01/10 10:55:59;;;;;;;36.88;16.30;;;2.80;97.80;;;;;;4972600;28;20053;-81
2021/01/10 10:58:25;;;;;;;40.03;16.23;;;2.90;97.20;;;;;;4991993;27;20041;-81
2021/01/10 11:00:50;;;;;;;40.92;18.33;;;2.90;97.00;;;;;;4996462;28;20036;-82
2021/01/10 11:03:16;;;;;;;42.28;18.02;;;2.90;97.00;;;;;;5009395;28;20034;-81
2021/01/10 11:06:02;;;;;;;36.47;16.45;;;3.00;97.10;;;;;;4991515;28;20033;-81
2021/01/10 11:08:27;;;;;;;35.83;15.20;;;3.00;97.50;;;;;;5029796;27;20064;-83
2021/01/10 11:10:56;;;;;;;36.63;15.13;;;3.00;97.30;;;;;;4974764;28;20037;-82
2021/01/10 11:13:24;;;;;;;34.55;15.85;;;3.20;98.30;;;;;;4999954;28;20029;-83
2021/01/10 11:16:18;;;;;;;44.42;18.60;;;3.40;99.00;;;;;;4992595;27;20041;-82
2021/01/10 11:18:43;;;;;;;38.45;16.38;;;3.40;99.00;;;;;;5000538;28;20093;-81
2021/01/10 11:21:09;;;;;;;34.08;16.25;;;3.40;97.80;;;;;;4987866;28;20498;-82
2021/01/10 11:23:35;;;;;;;40.42;16.63;;;3.50;98.70;;;;;;4971417;28;21942;-81
2021/01/10 11:26:11;;;;;;;46.47;17.20;;;3.60;99.10;;;;;;5012634;28;20036;-82
2021/01/10 11:28:36;;;;;;;;;;;3.70;99.40;;;;;;5022527;28;20037;-82
2021/01/10 11:31:05;;;;;;;32.37;15.37;;;3.80;99.50;;;;;;5003868;28;19909;-84
2021/01/10 11:33:30;;;;;;;35.70;15.02;;;3.80;99.40;;;;;;4982317;28;20048;-84
2021/01/10 11:35:57;;;;;;;34.70;15.15;;;3.90;99.60;;;;;;4989776;28;20038;-83
2021/01/10 11:38:23;;;;;;;27.30;13.45;;;3.90;98.70;;;;;;5025386;28;20037;-83
2021/01/10 11:40:49;;;;;;;43.47;16.83;;;3.80;97.80;;;;;;4971413;28;20029;-84
2021/01/10 11:43:15;;;;;;;43.80;17.23;;;3.90;99.20;;;;;;4980912;28;20025;-84
2021/01/10 11:45:40;;;;;;;38.30;17.75;;;4.00;99.00;;;;;;4975103;28;20033;-83
2021/01/10 11:48:06;;;;;;;38.28;16.20;;;4.10;99.50;;;;;;4991300;28;20033;-83
2021/01/10 11:50:32;;;;;;;40.72;17.92;;;4.20;99.70;;;;;;4985105;27;20029;-83
2021/01/10 11:53:00;;;;;;;42.13;18.70;;;4.20;99.40;;;;;;5006365;28;20057;-84
2021/01/10 11:55:26;;;;;;;34.47;15.07;;;4.30;99.90;;;;;;5016715;28;20095;-83
2021/01/10 11:57:54;;;;;;;32.70;14.13;;;4.30;99.10;;;;;;4989007;27;20026;-83
2021/01/10 12:00:20;;;;;;;50.55;20.63;;;4.30;99.20;;;;;;4991671;28;20480;-82
2021/01/10 12:02:46;;;;;;;38.40;15.95;;;4.40;99.60;;;;;;4990646;28;20037;-82
2021/01/10 12:05:15;;;;;;;52.30;19.75;;;4.40;99.20;;;;;;5007289;28;20017;-83
2021/01/10 12:07:40;;;;;;;61.90;22.13;;;4.50;99.30;;;;;;5006354;28;20528;-83
2021/01/10 12:10:06;;;;;;;37.50;14.63;;;4.60;99.80;;;;;;4989556;28;20116;-82
2021/01/10 12:12:32;;;;;;;43.22;19.27;;;4.60;99.60;;;;;;4990349;27;20025;-82
2021/01/10 12:14:58;;;;;;;22.75;9.05;;;4.60;99.20;;;;;;4990208;28;20029;-83
2021/01/10 12:17:23;;;;;;;59.42;23.08;;;4.60;98.60;;;;;;5006765;27;20433;-82
2021/01/10 12:19:49;;;;;;;45.80;18.90;;;4.60;99.80;;;;;;4990235;28;20029;-82
2021/01/10 12:22:14;;;;;;;42.88;17.65;;;4.50;97.80;;;;;;4989723;28;20035;-81
2021/01/10 12:24:40;;;;;;;57.55;22.42;;;4.60;98.20;;;;;;4989831;28;20033;-81
2021/01/10 12:27:05;;;;;;;51.70;22.17;;;4.70;99.60;;;;;;4988236;28;20470;-82
2021/01/10 12:29:32;;;;;;;43.35;18.50;;;4.80;99.90;;;;;;5006487;28;20025;-81
2021/01/10 12:31:58;;;;;;;59.72;22.15;;;4.70;98.50;;;;;;4990120;28;20025;-81
2021/01/10 12:34:24;;;;;;;48.10;19.60;;;4.80;99.50;;;;;;4989871;28;20104;-81
2021/01/10 12:36:49;;;;;;;59.38;23.52;;;4.80;98.40;;;;;;4990611;28;20125;-82
2021/01/10 12:39:15;;;;;;;48.92;20.30;;;4.80;98.70;;;;;;4985091;27;20109;-82
2021/01/10 12:41:42;;;;;;;54.35;21.75;;;4.70;98.50;;;;;;4991680;28;20126;-82
2021/01/10 12:44:08;;;;;;;59.45;20.92;;;4.70;97.90;;;;;;5004717;28;20039;-80
2021/01/10 12:46:33;;;;;;;54.35;23.05;;;4.70;98.60;;;;;;5001435;28;20037;-81
2021/01/10 12:48:59;;;;;;;52.63;20.45;;;4.70;99.20;;;;;;5006419;28;20033;-82